VTBD METAR and TAF | Updated Today

VTBD METAR

Don Mueang International Airport

Observation time: 23 min. ago

VTBD 011430Z 00000KT 8000 FEW030 28/15 Q1010 NOSIG

Need help? Read our tutorial on how to read METARs or read the parsed version below.

Don Mueang International Airport (VTBD) METAR

  • Weather conditions on Wed, 01 Feb 2023 14:30:00 +0000 (23 min. ago):
  • Present conditions: Dry
  • Clouds: A few at 914 meters
  • Visibility: 8000 meters
  • Wind: Calm
  • Temperature: 28 celsius
  • Dew point: 15 celsius
  • Pressure: 1010 millibars
  • Remarks: None


Useful to know...

VTBD TAF

Don Mueang International Airport

TAF VTBD 011100Z 0112/0218 32005KT 7000 FEW030 BECMG 0202/0204 12005KT BECMG 0208/0210 19005KT
Observation time: 3:53 hr. ago
Need help? Read our tutorial on how to read TAFs or read the parsed version below.

Parsed version of TAF for Don Mueang International Airport (VTBD)

  • From 01 February at 12:00 UTC, to day 02 of the month at 18:00 UTC
  • Clouds: A few at 914 meters
  • Visibility: 7000 meters
  • Wind: 320 degrees at 5
  • Expected to arise soon, from 02 February at 02:00 UTC, to day 02 of the month at 04:00 UTC
  • Wind: 120 degrees at 5
  • Expected to arise soon, from 02 February at 08:00 UTC, to day 02 of the month at 10:00 UTC
  • Wind: 190 degrees at 5